Time;durP1;ratioP1;P1;durP2;ratioP2;P2;SDS_P1;SDS_P2;PMS_P1;PMS_P2;Temp;Humidity;BMP_temperature;BMP_pressure;BME280_temperature;BME280_humidity;BME280_pressure;Samples;Min_cycle;Max_cycle;Signal;HPM_P1;HPM_P2
2021/04/11 00:01:07;;;;;;;;;;;;;;;19.01;35.10;99211.00;4415201;32;19987;-51
2021/04/11 00:03:33;;;;;;;;;;;;;;;18.97;36.07;99209.22;4417411;32;19996;-50
2021/04/11 00:05:58;;;;;;;;;;;;;;;18.95;35.80;99205.66;4417876;32;19950;-50
2021/04/11 00:08:24;;;;;;;;;;;;;;;18.92;35.65;99203.03;4415898;32;19984;-50
2021/04/11 00:10:50;;;;;;;;;;;;;;;19.00;35.50;99197.78;4417981;32;19954;-52
2021/04/11 00:13:16;;;;;;;;;;;;;;;18.98;35.36;99195.13;4416868;32;20609;-52
2021/04/11 00:15:42;;;;;;;;;;;;;;;18.85;35.88;99188.97;4416796;32;19965;-49
2021/04/11 00:18:08;;;;;;;;;;;;;;;18.96;35.57;99199.53;4416430;32;20007;-52
2021/04/11 00:20:34;;;;;;;;;;;;;;;18.88;35.63;99194.25;4417924;32;19977;-50
2021/04/11 00:23:00;;;;;;;;;;;;;;;18.90;36.02;99202.16;4417357;32;19974;-51
2021/04/11 00:25:26;;;;;;;;;;;;;;;18.97;35.36;99201.28;4417411;32;19939;-52
2021/04/11 00:27:52;;;;;;;;;;;;;;;18.99;35.41;99191.63;4416515;32;19954;-52
2021/04/11 00:30:18;;;;;;;;;;;;;;;19.01;35.11;99197.78;4416450;32;19943;-53
2021/04/11 00:32:44;;;;;;;;;;;;;;;18.99;35.71;99183.69;4416911;32;20358;-51
2021/04/11 00:35:10;;;;;;;;;;;;;;;18.96;35.54;99186.34;4417427;32;19962;-49
2021/04/11 00:37:36;;;;;;;;;;;;;;;18.95;35.78;99179.28;4416259;32;19972;-50
2021/04/11 00:40:02;;;;;;;;;;;;;;;18.92;35.92;99177.56;4415856;32;19955;-49
2021/04/11 00:42:28;;;;;;;;;;;;;;;18.88;36.08;99177.56;4416566;32;19984;-53
2021/04/11 00:44:54;;;;;;;;;;;;;;;18.87;35.85;99181.06;4420550;32;19984;-50
2021/04/11 00:47:19;;;;;;;;;;;;;;;18.92;35.87;99176.66;4419037;32;20307;-52
2021/04/11 00:49:47;;;;;;;;;;;;;;;18.95;35.42;99174.91;4420426;32;19970;-50
2021/04/11 00:52:14;;;;;;;;;;;;;;;18.89;35.61;99171.38;4419516;32;19954;-50
2021/04/11 00:54:40;;;;;;;;;;;;;;;18.84;35.70;99165.25;4421083;32;19958;-50
2021/04/11 00:57:07;;;;;;;;;;;;;;;18.93;35.63;99173.13;4419093;32;20323;-52
2021/04/11 00:59:32;;;;;;;;;;;;;;;18.98;35.64;99162.59;4419870;32;20002;-48
2021/04/11 01:01:58;;;;;;;;;;;;;;;18.94;35.51;99164.34;4419954;32;20313;-51
2021/04/11 01:04:24;;;;;;;;;;;;;;;18.95;35.00;99167.00;4420689;32;19962;-51
2021/04/11 01:06:50;;;;;;;;;;;;;;;18.91;35.61;99162.59;4419986;32;19950;-50
2021/04/11 01:09:16;;;;;;;;;;;;;;;18.91;35.36;99161.72;4420467;32;19934;-50
2021/04/11 01:11:42;;;;;;;;;;;;;;;18.97;35.34;99151.16;4420955;32;20007;-50
2021/04/11 01:14:08;;;;;;;;;;;;;;;18.94;35.34;99140.59;4418210;32;19958;-51
2021/04/11 01:16:34;;;;;;;;;;;;;;;18.93;35.81;99133.56;4419760;32;19946;-49
2021/04/11 01:19:00;;;;;;;;;;;;;;;18.94;35.61;99141.50;4419578;32;19939;-50
2021/04/11 01:21:26;;;;;;;;;;;;;;;18.94;35.35;99140.59;4419762;32;19937;-50
2021/04/11 01:23:52;;;;;;;;;;;;;;;18.94;35.65;99145.88;4420962;32;19963;-52
2021/04/11 01:26:18;;;;;;;;;;;;;;;18.91;35.49;99135.34;4420297;32;19957;-51
2021/04/11 01:28:43;;;;;;;;;;;;;;;18.92;35.87;99147.63;4419039;32;19981;-52
2021/04/11 01:31:09;;;;;;;;;;;;;;;18.96;35.23;99149.41;4418023;32;20363;-52
2021/04/11 01:33:35;;;;;;;;;;;;;;;18.87;35.74;99144.12;4418911;32;20334;-52
2021/04/11 01:36:01;;;;;;;;;;;;;;;18.96;35.27;99138.88;4419651;32;19950;-52
2021/04/11 01:38:27;;;;;;;;;;;;;;;19.01;35.30;99123.94;4419148;32;19996;-48
2021/04/11 01:40:53;;;;;;;;;;;;;;;18.92;35.36;99131.81;4420024;32;19966;-51
2021/04/11 01:43:19;;;;;;;;;;;;;;;18.94;35.58;99128.31;4419770;32;19966;-51
2021/04/11 01:45:45;;;;;;;;;;;;;;;18.89;35.51;99118.63;4419617;32;20362;-51
2021/04/11 01:48:11;;;;;;;;;;;;;;;18.95;35.22;99118.59;4419090;32;19953;-49
2021/04/11 01:50:37;;;;;;;;;;;;;;;18.86;35.67;99121.28;4420036;32;19966;-52
2021/04/11 01:53:03;;;;;;;;;;;;;;;18.95;35.57;99122.13;4420178;32;20717;-50
2021/04/11 01:55:28;;;;;;;;;;;;;;;18.95;35.26;99115.97;4419651;32;19969;-49
2021/04/11 01:57:54;;;;;;;;;;;;;;;18.95;35.28;99111.59;4418896;32;20015;-48
2021/04/11 02:00:20;;;;;;;;;;;;;;;18.84;35.76;99117.78;4419195;32;19961;-50
2021/04/11 02:02:46;;;;;;;;;;;;;;;18.85;35.42;99120.38;4419285;32;19962;-51
2021/04/11 02:05:12;;;;;;;;;;;;;;;18.89;35.43;99111.63;4419027;32;19950;-50
2021/04/11 02:07:38;;;;;;;;;;;;;;;18.92;35.35;99102.78;4416988;32;20342;-51
2021/04/11 02:10:04;;;;;;;;;;;;;;;18.96;35.49;99115.13;4418670;32;20012;-53
2021/04/11 02:12:30;;;;;;;;;;;;;;;18.94;35.49;99116.84;4418506;32;19965;-50
2021/04/11 02:14:56;;;;;;;;;;;;;;;18.87;35.40;99115.13;4417984;32;19966;-53
2021/04/11 02:17:22;;;;;;;;;;;;;;;18.86;35.85;99122.16;4418544;32;19970;-49
2021/04/11 02:19:47;;;;;;;;;;;;;;;18.91;35.32;99120.41;4420331;32;19958;-50
2021/04/11 02:22:13;;;;;;;;;;;;;;;18.91;35.75;99111.59;4418654;32;19962;-49
2021/04/11 02:24:40;;;;;;;;;;;;;;;18.92;35.64;99110.72;4417842;32;19950;-52
2021/04/11 02:27:06;;;;;;;;;;;;;;;18.89;35.21;99105.44;4416667;32;19951;-51
2021/04/11 02:29:32;;;;;;;;;;;;;;;18.89;35.63;99101.06;4419804;32;20495;-51
2021/04/11 02:31:58;;;;;;;;;;;;;;;18.92;35.41;99105.44;4416706;32;19950;-51
2021/04/11 02:34:24;;;;;;;;;;;;;;;18.91;35.50;99103.69;4418308;32;19970;-52
2021/04/11 02:36:50;;;;;;;;;;;;;;;18.93;34.97;99096.63;4419122;32;19992;-52
2021/04/11 02:39:16;;;;;;;;;;;;;;;18.90;35.12;99096.66;4419516;32;19970;-52
2021/04/11 02:41:41;;;;;;;;;;;;;;;18.88;35.30;99096.63;4417169;32;19946;-49
2021/04/11 02:44:07;;;;;;;;;;;;;;;18.89;35.28;99089.62;4418957;32;19969;-51
2021/04/11 02:46:33;;;;;;;;;;;;;;;18.91;35.50;99093.13;4418573;32;20340;-50
2021/04/11 02:48:59;;;;;;;;;;;;;;;18.95;35.36;99092.22;4418685;32;19948;-51
2021/04/11 02:51:27;;;;;;;;;;;;;;;18.99;35.17;99087.81;4418673;32;19942;-50
2021/04/11 02:53:53;;;;;;;;;;;;;;;18.91;35.07;99078.19;4418549;32;19954;-52
2021/04/11 02:56:18;;;;;;;;;;;;;;;18.91;35.51;99082.56;4417740;32;19993;-52
2021/04/11 02:58:44;;;;;;;;;;;;;;;18.90;35.02;99086.09;4411326;32;19982;-51
2021/04/11 03:01:10;;;;;;;;;;;;;;;18.91;35.03;99088.75;4408246;32;19941;-51
2021/04/11 03:03:36;;;;;;;;;;;;;;;18.89;35.44;99089.62;4417608;32;19954;-50
2021/04/11 03:06:02;;;;;;;;;;;;;;;18.95;35.27;99089.59;4418642;32;20293;-51
2021/04/11 03:08:28;;;;;;;;;;;;;;;18.85;35.37;99088.75;4417424;32;19950;-50
2021/04/11 03:10:54;;;;;;;;;;;;;;;18.81;35.36;99082.59;4418527;32;19963;-52
2021/04/11 03:13:20;;;;;;;;;;;;;;;18.89;35.38;99089.62;4418616;32;20390;-51
2021/04/11 03:15:45;;;;;;;;;;;;;;;18.90;35.35;99091.38;4418252;32;20321;-50
2021/04/11 03:18:11;;;;;;;;;;;;;;;18.87;35.45;99086.97;4418054;32;19976;-51
2021/04/11 03:20:37;;;;;;;;;;;;;;;18.88;35.56;99093.16;4417465;32;20019;-50
2021/04/11 03:23:03;;;;;;;;;;;;;;;18.82;35.81;99091.41;4418926;32;20268;-53
2021/04/11 03:25:29;;;;;;;;;;;;;;;18.82;35.84;99089.62;4419178;32;19938;-51
2021/04/11 03:27:55;;;;;;;;;;;;;;;18.80;35.42;99088.75;4417804;32;20341;-51
2021/04/11 03:30:21;;;;;;;;;;;;;;;18.79;35.50;99087.00;4403341;32;20302;-51
2021/04/11 03:32:47;;;;;;;;;;;;;;;18.84;35.51;99087.00;4403441;32;19978;-50
2021/04/11 03:35:13;;;;;;;;;;;;;;;18.88;35.56;99090.50;4415820;32;19984;-52
2021/04/11 03:37:39;;;;;;;;;;;;;;;18.85;35.10;99085.25;4418013;32;19984;-51
2021/04/11 03:40:05;;;;;;;;;;;;;;;18.90;35.09;99087.00;4416334;32;20004;-53
2021/04/11 03:42:31;;;;;;;;;;;;;;;18.89;35.35;99087.88;4418249;32;20304;-52
2021/04/11 03:44:56;;;;;;;;;;;;;;;18.87;35.31;99086.13;4418163;32;19956;-49
2021/04/11 03:47:22;;;;;;;;;;;;;;;18.88;35.31;99087.88;4417677;32;20025;-51
2021/04/11 03:49:48;;;;;;;;;;;;;;;18.92;35.15;99089.59;4418503;32;19965;-51
2021/04/11 03:52:14;;;;;;;;;;;;;;;18.86;35.15;99084.34;4418686;32;20310;-50
2021/04/11 03:54:40;;;;;;;;;;;;;;;18.85;35.42;99087.88;4417456;32;19975;-52
2021/04/11 03:57:07;;;;;;;;;;;;;;;18.81;35.42;99092.28;4416450;32;19969;-53
2021/04/11 03:59:33;;;;;;;;;;;;;;;18.84;35.58;99087.00;4418247;32;19964;-52
2021/04/11 04:01:59;;;;;;;;;;;;;;;18.88;35.06;99095.78;4416965;32;19943;-48
2021/04/11 04:04:24;;;;;;;;;;;;;;;18.87;35.23;99096.66;4416518;32;19961;-50
2021/04/11 04:06:50;;;;;;;;;;;;;;;18.87;35.15;99096.66;4417604;32;20325;-52
2021/04/11 04:09:16;;;;;;;;;;;;;;;18.86;35.66;99089.62;4416934;32;19938;-53
2021/04/11 04:11:42;;;;;;;;;;;;;;;18.80;35.34;99086.09;4417094;32;19952;-53
2021/04/11 04:14:08;;;;;;;;;;;;;;;18.89;35.31;99090.50;4417245;32;19992;-49
2021/04/11 04:16:34;;;;;;;;;;;;;;;18.89;35.32;99084.34;4417375;32;19966;-52
2021/04/11 04:19:00;;;;;;;;;;;;;;;18.77;35.75;99080.84;4415669;32;19970;-52
2021/04/11 04:21:26;;;;;;;;;;;;;;;18.80;35.53;99083.47;4416191;32;20335;-51
2021/04/11 04:23:51;;;;;;;;;;;;;;;18.78;35.55;99084.38;4416639;32;19977;-51
2021/04/11 04:26:17;;;;;;;;;;;;;;;18.82;35.39;99086.97;4416642;32;20372;-49
2021/04/11 04:28:43;;;;;;;;;;;;;;;18.76;35.49;99084.38;4416069;32;19968;-50
2021/04/11 04:31:09;;;;;;;;;;;;;;;18.84;35.42;99094.03;4402332;32;19981;-50
2021/04/11 04:33:35;;;;;;;;;;;;;;;18.75;35.75;99093.16;4399196;32;19958;-50
2021/04/11 04:36:01;;;;;;;;;;;;;;;18.79;35.55;99089.62;4413833;32;19951;-50
2021/04/11 04:38:27;;;;;;;;;;;;;;;18.79;35.50;99087.00;4417158;32;19973;-52
2021/04/11 04:40:53;;;;;;;;;;;;;;;18.83;35.70;99082.59;4415946;32;19993;-50
2021/04/11 04:43:19;;;;;;;;;;;;;;;18.77;35.62;99075.56;4417380;32;20313;-51
2021/04/11 04:45:45;;;;;;;;;;;;;;;18.81;35.73;99079.09;4414723;32;19990;-52
2021/04/11 04:48:11;;;;;;;;;;;;;;;18.81;35.47;99077.31;4417057;32;19942;-50
2021/04/11 04:50:37;;;;;;;;;;;;;;;18.77;35.57;99075.56;4417857;32;20017;-49
2021/04/11 04:53:03;;;;;;;;;;;;;;;18.79;35.30;99072.94;4417568;32;19938;-51
2021/04/11 04:55:29;;;;;;;;;;;;;;;18.87;35.36;99070.28;4418114;32;19937;-49
2021/04/11 04:57:55;;;;;;;;;;;;;;;18.79;35.27;99067.66;4417018;32;20367;-50
2021/04/11 05:00:20;;;;;;;;;;;;;;;18.85;35.50;99077.34;4410514;32;19946;-52
2021/04/11 05:02:46;;;;;;;;;;;;;;;18.84;35.38;99070.31;4401660;32;19980;-49
2021/04/11 05:05:12;;;;;;;;;;;;;;;18.81;35.48;99069.41;4404247;32;19957;-51
2021/04/11 05:07:38;;;;;;;;;;;;;;;18.78;35.70;99068.56;4416252;32;19974;-51
2021/04/11 05:10:05;;;;;;;;;;;;;;;18.85;35.32;99070.28;4415740;32;20061;-53
2021/04/11 05:12:31;;;;;;;;;;;;;;;18.84;35.37;99071.16;4415108;32;19977;-48
2021/04/11 05:14:57;;;;;;;;;;;;;;;18.82;35.25;99073.78;4417928;32;19972;-52
2021/04/11 05:17:23;;;;;;;;;;;;;;;18.80;35.29;99070.28;4416485;32;20429;-51
2021/04/11 05:19:49;;;;;;;;;;;;;;;18.74;35.61;99075.59;4416378;32;20010;-54
2021/04/11 05:22:15;;;;;;;;;;;;;;;18.83;35.28;99082.59;4414895;32;19984;-52
2021/04/11 05:24:41;;;;;;;;;;;;;;;18.82;35.21;99081.69;4415312;32;19987;-50
2021/04/11 05:27:07;;;;;;;;;;;;;;;18.83;35.48;99079.97;4414809;32;19958;-52
2021/04/11 05:29:33;;;;;;;;;;;;;;;18.81;35.41;99082.59;4417231;32;19949;-52
2021/04/11 05:31:58;;;;;;;;;;;;;;;18.88;35.33;99087.88;4418637;32;20258;-50
2021/04/11 05:34:24;;;;;;;;;;;;;;;18.86;35.15;99085.22;4419314;32;19968;-51
2021/04/11 05:36:50;;;;;;;;;;;;;;;18.80;35.62;99091.38;4419979;32;19993;-50
2021/04/11 05:39:17;;;;;;;;;;;;;;;18.80;35.46;99101.06;4420092;32;19934;-50
2021/04/11 05:41:43;;;;;;;;;;;;;;;18.79;35.38;99100.19;4420535;32;19993;-50
2021/04/11 05:44:09;;;;;;;;;;;;;;;18.86;35.51;99100.19;4420028;32;19966;-51
2021/04/11 05:46:34;;;;;;;;;;;;;;;18.81;35.14;99093.13;4420010;32;19989;-50
2021/04/11 05:49:00;;;;;;;;;;;;;;;18.84;35.47;99102.81;4419485;32;19942;-48
2021/04/11 05:51:26;;;;;;;;;;;;;;;18.81;35.39;99094.91;4419386;32;19960;-50
2021/04/11 05:53:52;;;;;;;;;;;;;;;18.83;35.10;99093.16;4420108;32;19976;-49
2021/04/11 05:56:18;;;;;;;;;;;;;;;18.84;35.54;99088.75;4418993;32;19938;-51
2021/04/11 05:58:44;;;;;;;;;;;;;;;18.85;35.48;99091.38;4418580;32;20366;-51
2021/04/11 06:01:10;;;;;;;;;;;;;;;18.72;35.73;99087.00;4418254;32;19953;-51
2021/04/11 06:03:35;;;;;;;;;;;;;;;18.84;35.56;99097.53;4417632;32;19990;-48
2021/04/11 06:06:01;;;;;;;;;;;;;;;18.81;35.65;99111.59;4419455;32;20679;-49
2021/04/11 06:08:27;;;;;;;;;;;;;;;18.79;35.55;99100.19;4417083;32;20014;-50
2021/04/11 06:10:53;;;;;;;;;;;;;;;18.79;35.38;99099.31;4418807;32;19946;-52
2021/04/11 06:13:19;;;;;;;;;;;;;;;18.83;35.45;99095.78;4419695;32;19958;-50
2021/04/11 06:15:45;;;;;;;;;;;;;;;18.84;35.46;99107.22;4419577;32;19985;-52
2021/04/11 06:18:13;;;;;;;;;;;;;;;18.88;35.22;99098.41;4417006;32;20315;-49
2021/04/11 06:20:39;;;;;;;;;;;;;;;18.91;35.07;99098.41;4419302;32;20351;-50
2021/04/11 06:23:05;;;;;;;;;;;;;;;18.86;35.25;99106.31;4419071;32;20012;-51
2021/04/11 06:25:31;;;;;;;;;;;;;;;18.92;35.18;99114.25;4418867;32;20264;-52
2021/04/11 06:27:56;;;;;;;;;;;;;;;18.93;35.24;99112.47;4417388;32;20365;-52
2021/04/11 06:30:22;;;;;;;;;;;;;;;18.92;35.08;99115.97;4418698;32;19950;-52
2021/04/11 06:32:48;;;;;;;;;;;;;;;18.92;35.11;99118.63;4418723;32;20119;-52
2021/04/11 06:35:14;;;;;;;;;;;;;;;18.87;35.47;99117.75;4416977;32;20423;-51
2021/04/11 06:37:40;;;;;;;;;;;;;;;18.85;35.58;99123.03;4416890;32;19953;-50
2021/04/11 06:40:06;;;;;;;;;;;;;;;18.90;35.40;99120.38;4418668;32;19977;-51
2021/04/11 06:42:32;;;;;;;;;;;;;;;18.92;35.05;99114.25;4410411;32;19969;-50
2021/04/11 06:44:58;;;;;;;;;;;;;;;18.94;35.22;99108.94;4404434;32;19947;-46
2021/04/11 06:47:24;;;;;;;;;;;;;;;18.91;35.26;99115.13;4409290;32;20227;-50
2021/04/11 06:49:50;;;;;;;;;;;;;;;18.87;35.43;99123.91;4417137;32;20362;-47
2021/04/11 06:52:16;;;;;;;;;;;;;;;18.94;35.22;99119.50;4419386;32;19960;-49
2021/04/11 06:54:42;;;;;;;;;;;;;;;18.92;35.24;99123.91;4419690;32;19942;-51
2021/04/11 06:57:08;;;;;;;;;;;;;;;18.92;35.37;99118.63;4417545;32;19972;-50
2021/04/11 06:59:34;;;;;;;;;;;;;;;18.92;35.35;99123.91;4418992;32;19980;-51
2021/04/11 07:01:59;;;;;;;;;;;;;;;18.95;35.17;99115.97;4418606;32;19946;-51
2021/04/11 07:04:27;;;;;;;;;;;;;;;18.99;35.18;99112.47;4417200;32;20255;-53
2021/04/11 07:06:52;;;;;;;;;;;;;;;19.02;35.27;99117.75;4417011;32;19965;-51
2021/04/11 07:09:18;;;;;;;;;;;;;;;19.04;35.39;99116.00;4418108;32;19992;-53
2021/04/11 07:11:44;;;;;;;;;;;;;;;19.04;35.14;99126.53;4418045;32;20055;-50
2021/04/11 07:14:10;;;;;;;;;;;;;;;19.07;35.24;99123.03;4417728;32;19951;-52
2021/04/11 07:16:36;;;;;;;;;;;;;;;19.06;35.35;99119.50;4417655;32;20006;-52
2021/04/11 07:19:02;;;;;;;;;;;;;;;19.06;35.24;99124.78;4418239;32;20006;-50
2021/04/11 07:21:28;;;;;;;;;;;;;;;19.08;35.27;99133.59;4417927;32;19998;-54
2021/04/11 07:23:54;;;;;;;;;;;;;;;19.08;35.32;99138.88;4416659;32;19969;-51
2021/04/11 07:26:20;;;;;;;;;;;;;;;19.10;35.30;99121.28;4416795;32;20420;-50
2021/04/11 07:28:46;;;;;;;;;;;;;;;19.08;35.30;99112.50;4416098;32;19983;-54
2021/04/11 07:31:11;;;;;;;;;;;;;;;19.05;35.40;99101.06;4415223;32;20365;-52
2021/04/11 07:33:37;;;;;;;;;;;;;;;19.09;35.33;99093.13;4416853;32;19954;-51
2021/04/11 07:36:03;;;;;;;;;;;;;;;19.12;35.37;99094.00;4417961;32;19934;-51
2021/04/11 07:38:30;;;;;;;;;;;;;;;19.05;35.55;99091.38;4417791;32;20270;-51
2021/04/11 07:40:56;;;;;;;;;;;;;;;19.08;35.50;99086.09;4418753;32;19978;-49
2021/04/11 07:43:22;;;;;;;;;;;;;;;19.06;35.54;99085.19;4418013;32;19982;-53
2021/04/11 07:45:49;;;;;;;;;;;;;;;19.05;35.69;99091.38;4416814;32;19954;-51
2021/04/11 07:48:15;;;;;;;;;;;;;;;19.03;35.79;99093.13;4414586;32;19985;-50
2021/04/11 07:50:40;;;;;;;;;;;;;;;19.02;35.77;99099.28;4417225;32;19953;-52
2021/04/11 07:53:06;;;;;;;;;;;;;;;19.02;35.68;99099.28;4418131;32;19973;-50
2021/04/11 07:55:32;;;;;;;;;;;;;;;19.03;35.73;99101.03;4418720;32;19984;-51
2021/04/11 07:57:58;;;;;;;;;;;;;;;19.04;35.81;99102.81;4418156;32;19958;-48
2021/04/11 08:00:24;;;;;;;;;;;;;;;19.05;35.76;99101.06;4417193;32;19976;-52
2021/04/11 08:02:50;;;;;;;;;;;;;;;19.05;35.89;99106.34;4411762;32;19989;-51
2021/04/11 08:05:16;;;;;;;;;;;;;;;19.04;35.88;99113.34;4402779;32;19959;-51
2021/04/11 08:07:42;;;;;;;;;;;;;;;19.09;35.74;99119.53;4399669;32;19963;-48
2021/04/11 08:10:08;;;;;;;;;;;;;;;19.13;35.71;99117.72;4386573;32;19943;-54
2021/04/11 08:12:34;;;;;;;;;;;;;;;19.16;35.72;99124.75;4399374;32;20283;-52
2021/04/11 08:15:00;;;;;;;;;;;;;;;19.14;35.75;99126.53;4399998;32;20336;-54
2021/04/11 08:17:26;;;;;;;;;;;;;;;19.19;35.77;99122.09;4405160;32;19950;-53
2021/04/11 08:19:52;;;;;;;;;;;;;;;19.08;35.85;99128.31;4416068;32;19962;-52
2021/04/11 08:22:18;;;;;;;;;;;;;;;19.01;36.27;99130.94;4413032;32;19947;-52
2021/04/11 08:24:45;;;;;;;;;;;;;;;19.16;35.93;99135.31;4410802;32;20348;-51
2021/04/11 08:27:10;;;;;;;;;;;;;;;19.21;35.90;99123.00;4411120;32;19965;-50
2021/04/11 08:29:36;;;;;;;;;;;;;;;19.18;35.90;99118.59;4415035;32;19960;-51
2021/04/11 08:32:02;;;;;;;;;;;;;;;18.92;36.86;99123.91;4414455;32;20031;-51
2021/04/11 08:34:28;;;;;;;;;;;;;;;18.75;36.99;99124.81;4414730;32;19972;-51
2021/04/11 08:36:54;;;;;;;;;;;;;;;18.82;36.88;99121.25;4413889;32;20367;-48
2021/04/11 08:39:20;;;;;;;;;;;;;;;19.18;36.39;99128.28;4414300;32;19950;-51
2021/04/11 08:41:46;;;;;;;;;;;;;;;19.24;36.11;99107.16;4416123;32;19961;-47
2021/04/11 08:44:12;;;;;;;;;;;;;;;19.20;36.30;99114.19;4412576;32;19969;-55
2021/04/11 08:46:37;;;;;;;;;;;;;;;19.21;36.40;99118.59;4414619;32;19950;-52
2021/04/11 08:49:05;;;;;;;;;;;;;;;19.22;36.36;99120.34;4408341;32;19954;-52
2021/04/11 08:51:30;;;;;;;;;;;;;;;19.30;36.26;99120.31;4409444;32;20306;-49
2021/04/11 08:53:56;;;;;;;;;;;;;;;19.32;36.19;99121.22;4416212;32;19949;-51
2021/04/11 08:56:22;;;;;;;;;;;;;;;19.32;36.22;99125.59;4413879;32;19954;-52
2021/04/11 08:58:48;;;;;;;;;;;;;;;19.31;36.25;99122.06;4414335;32;19993;-52
2021/04/11 09:01:14;;;;;;;;;;;;;;;19.24;36.44;99115.06;4411981;32;19973;-50
2021/04/11 09:03:40;;;;;;;;;;;;;;;19.21;36.54;99108.03;4415683;32;19946;-48
2021/04/11 09:06:06;;;;;;;;;;;;;;;19.26;36.48;99118.59;4417234;32;20008;-52
2021/04/11 09:08:32;;;;;;;;;;;;;;;19.22;36.47;99117.72;4415967;32;20003;-51
2021/04/11 09:10:58;;;;;;;;;;;;;;;19.22;36.49;99122.13;4420148;32;19942;-52
2021/04/11 09:13:24;;;;;;;;;;;;;;;19.23;36.61;99126.53;4419597;32;19954;-51
2021/04/11 09:15:50;;;;;;;;;;;;;;;19.33;36.43;99122.09;4418400;32;20021;-52
2021/04/11 09:18:16;;;;;;;;;;;;;;;19.25;36.52;99124.75;4418896;32;19997;-49
2021/04/11 09:20:42;;;;;;;;;;;;;;;19.21;36.71;99115.09;4414486;32;19938;-50
2021/04/11 09:23:08;;;;;;;;;;;;;;;19.19;36.81;99124.75;4419690;32;20021;-48
2021/04/11 09:25:34;;;;;;;;;;;;;;;19.22;36.73;99127.41;4418322;32;19961;-55
2021/04/11 09:28:00;;;;;;;;;;;;;;;19.18;37.19;99128.28;4416929;32;20028;-52
2021/04/11 09:30:26;;;;;;;;;;;;;;;19.25;37.17;99130.03;4419074;32;19985;-53
2021/04/11 09:32:51;;;;;;;;;;;;;;;19.35;36.80;99137.03;4416548;32;20358;-49
2021/04/11 09:35:17;;;;;;;;;;;;;;;19.33;36.89;99133.53;4419481;32;19968;-51
2021/04/11 09:37:43;;;;;;;;;;;;;;;19.35;36.75;99126.47;4417671;32;20684;-52
2021/04/11 09:40:09;;;;;;;;;;;;;;;19.35;36.69;99125.59;4418225;32;19942;-52
2021/04/11 09:42:35;;;;;;;;;;;;;;;19.38;36.63;99125.56;4417083;32;19986;-52
2021/04/11 09:45:01;;;;;;;;;;;;;;;19.31;37.20;99130.00;4418015;32;20347;-49
2021/04/11 09:47:27;;;;;;;;;;;;;;;19.31;37.35;99129.12;4417332;32;19942;-50
2021/04/11 09:49:53;;;;;;;;;;;;;;;19.44;37.05;99127.31;4420349;32;19973;-48
2021/04/11 09:52:18;;;;;;;;;;;;;;;19.39;37.46;99122.06;4412776;32;20313;-52
2021/04/11 09:54:44;;;;;;;;;;;;;;;19.48;37.37;99142.28;4417854;32;19993;-52
2021/04/11 09:57:10;;;;;;;;;;;;;;;19.56;37.08;99144.88;4412165;32;19968;-51
2021/04/11 09:59:37;;;;;;;;;;;;;;;19.56;37.02;99151.03;4415063;32;19962;-52
2021/04/11 10:02:02;;;;;;;;;;;;;;;19.55;36.92;99140.50;4415046;32;20002;-51
2021/04/11 10:04:29;;;;;;;;;;;;;;;19.55;36.81;99144.00;4416481;32;20404;-49
2021/04/11 10:06:55;;;;;;;;;;;;;;;19.51;36.90;99150.19;4415131;32;20016;-51
2021/04/11 10:09:20;;;;;;;;;;;;;;;19.45;37.04;99144.94;4416105;32;19993;-51
2021/04/11 10:11:46;;;;;;;;;;;;;;;19.32;37.40;99147.63;4415133;32;20386;-54
2021/04/11 10:14:12;;;;;;;;;;;;;;;19.37;37.48;99151.09;4414594;32;19964;-51
2021/04/11 10:16:38;;;;;;;;;;;;;;;19.52;37.15;99147.56;4413141;32;19954;-52
2021/04/11 10:19:04;;;;;;;;;;;;;;;19.60;36.78;99150.16;4415458;32;20142;-50
2021/04/11 10:21:30;;;;;;;;;;;;;;;19.61;36.70;99146.63;4414791;32;19995;-52
2021/04/11 10:23:56;;;;;;;;;;;;;;;19.57;36.77;99149.28;4416742;32;19962;-53
2021/04/11 10:26:22;;;;;;;;;;;;;;;19.48;36.95;99152.84;4415343;32;19954;-49
2021/04/11 10:28:48;;;;;;;;;;;;;;;19.46;37.02;99150.19;4414748;32;20303;-51
2021/04/11 10:31:14;;;;;;;;;;;;;;;19.51;36.92;99152.81;4414850;32;19998;-51
2021/04/11 10:33:40;;;;;;;;;;;;;;;19.45;37.07;99158.12;4417226;32;19958;-51
2021/04/11 10:36:06;;;;;;;;;;;;;;;19.43;37.07;99159.88;4412518;32;19957;-50
2021/04/11 10:38:32;;;;;;;;;;;;;;;19.42;37.11;99152.84;4413950;32;19954;-50
2021/04/11 10:40:59;;;;;;;;;;;;;;;19.41;37.11;99154.63;4413671;32;20339;-48
2021/04/11 10:43:25;;;;;;;;;;;;;;;19.31;37.30;99160.81;4415755;32;19964;-47
2021/04/11 10:45:51;;;;;;;;;;;;;;;19.41;37.21;99172.22;4415102;32;19992;-50
2021/04/11 10:48:16;;;;;;;;;;;;;;;19.52;36.96;99170.41;4412743;32;20004;-52
2021/04/11 10:50:42;;;;;;;;;;;;;;;19.54;36.84;99168.66;4410046;32;19942;-52
2021/04/11 10:53:08;;;;;;;;;;;;;;;19.55;36.86;99173.03;4415034;32;20044;-51
2021/04/11 10:55:34;;;;;;;;;;;;;;;19.56;36.84;99171.28;4415766;32;20269;-51
2021/04/11 10:58:00;;;;;;;;;;;;;;;19.61;36.74;99172.16;4414074;32;20022;-52
2021/04/11 11:00:26;;;;;;;;;;;;;;;19.48;36.94;99173.97;4413564;32;19958;-47
2021/04/11 11:02:52;;;;;;;;;;;;;;;19.31;37.36;99180.16;4413668;32;19958;-51
2021/04/11 11:05:18;;;;;;;;;;;;;;;19.44;37.27;99182.75;4414306;32;19954;-50
2021/04/11 11:07:44;;;;;;;;;;;;;;;19.48;37.02;99173.97;4411151;32;20000;-49
2021/04/11 11:10:10;;;;;;;;;;;;;;;19.43;37.10;99171.34;4412576;32;19997;-49
2021/04/11 11:12:35;;;;;;;;;;;;;;;19.43;37.20;99159.88;4414963;32;19953;-53
2021/04/11 11:15:01;;;;;;;;;;;;;;;19.49;37.05;99170.44;4415225;32;20354;-53
2021/04/11 11:17:27;;;;;;;;;;;;;;;19.42;37.35;99176.59;4413545;32;19981;-51
2021/04/11 11:19:53;;;;;;;;;;;;;;;19.43;37.29;99176.63;4415923;32;19977;-51
2021/04/11 11:22:19;;;;;;;;;;;;;;;19.40;37.37;99171.34;4413403;32;20306;-51
2021/04/11 11:24:45;;;;;;;;;;;;;;;19.54;36.98;99173.94;4414610;32;19954;-53
2021/04/11 11:27:11;;;;;;;;;;;;;;;19.51;37.07;99182.75;4411455;32;19962;-50
2021/04/11 11:29:37;;;;;;;;;;;;;;;19.50;37.12;99185.41;4413488;32;20013;-52
2021/04/11 11:32:03;;;;;;;;;;;;;;;19.49;37.11;99181.00;4411218;32;19968;-51
2021/04/11 11:34:29;;;;;;;;;;;;;;;19.54;36.95;99178.34;4415076;32;20016;-50
2021/04/11 11:36:55;;;;;;;;;;;;;;;19.54;36.94;99184.50;4414550;32;20028;-53
2021/04/11 11:39:21;;;;;;;;;;;;;;;19.59;36.79;99188.00;4412713;32;20453;-51
2021/04/11 11:41:47;;;;;;;;;;;;;;;19.63;36.64;99189.75;4413217;32;19974;-52
2021/04/11 11:44:13;;;;;;;;;;;;;;;19.63;36.70;99194.13;4414189;32;20034;-51
2021/04/11 11:46:39;;;;;;;;;;;;;;;19.66;36.68;99189.72;4413219;32;19961;-50
2021/04/11 11:49:05;;;;;;;;;;;;;;;19.65;36.60;99202.97;4411208;32;20394;-49
2021/04/11 11:51:31;;;;;;;;;;;;;;;19.54;36.84;99202.97;4413173;32;19962;-53
2021/04/11 11:53:57;;;;;;;;;;;;;;;19.59;36.79;99201.22;4413881;32;19981;-49
2021/04/11 11:56:23;;;;;;;;;;;;;;;19.58;36.83;99207.38;4413887;32;20436;-53
2021/04/11 11:58:49;;;;;;;;;;;;;;;19.54;36.96;99205.63;4412373;32;20021;-51
2021/04/11 12:01:14;;;;;;;;;;;;;;;19.63;36.72;99208.22;4412484;32;20379;-50
2021/04/11 12:03:40;;;;;;;;;;;;;;;19.55;36.86;99210.00;4412690;32;19973;-52
2021/04/11 12:06:06;;;;;;;;;;;;;;;19.58;36.93;99209.13;4408994;32;19951;-52
2021/04/11 12:08:32;;;;;;;;;;;;;;;19.56;36.95;99214.41;4413243;32;19954;-51
2021/04/11 12:10:58;;;;;;;;;;;;;;;19.60;36.90;99221.47;4414235;32;19958;-51
2021/04/11 12:13:24;;;;;;;;;;;;;;;19.53;37.03;99217.06;4414804;32;19962;-52
2021/04/11 12:15:50;;;;;;;;;;;;;;;19.59;36.93;99219.69;4414734;32;20369;-47
2021/04/11 12:18:15;;;;;;;;;;;;;;;19.58;36.99;99223.22;4413115;32;19991;-54
2021/04/11 12:20:41;;;;;;;;;;;;;;;19.57;37.02;99226.75;4413698;32;19978;-51
2021/04/11 12:23:07;;;;;;;;;;;;;;;19.65;36.90;99224.09;4409266;32;20035;-46
2021/04/11 12:25:33;;;;;;;;;;;;;;;19.62;37.00;99232.00;4414972;32;19962;-52
2021/04/11 12:27:59;;;;;;;;;;;;;;;19.62;36.92;99232.91;4414794;32;19946;-47
2021/04/11 12:30:25;;;;;;;;;;;;;;;19.60;36.91;99237.31;4414229;32;20381;-52
2021/04/11 12:32:51;;;;;;;;;;;;;;;19.60;37.03;99241.69;4415089;32;19953;-48
2021/04/11 12:35:17;;;;;;;;;;;;;;;19.49;37.23;99250.50;4414396;32;19961;-50
2021/04/11 12:37:43;;;;;;;;;;;;;;;19.48;37.24;99254.03;4413669;32;19992;-50
2021/04/11 12:40:09;;;;;;;;;;;;;;;19.47;37.36;99251.41;4413550;32;19966;-50